sensor_id;sensor_type;location;lat;lon;timestamp;temperature;humidity
53776;DHT22;44276;49.534;6.378;2023-09-07T00:00:03;13.50;99.90
53776;DHT22;44276;49.534;6.378;2023-09-07T00:02:32;13.40;99.90
53776;DHT22;44276;49.534;6.378;2023-09-07T00:05:08;13.50;99.90
53776;DHT22;44276;49.534;6.378;2023-09-07T00:07:37;13.50;99.90
53776;DHT22;44276;49.534;6.378;2023-09-07T00:10:06;13.50;99.90
53776;DHT22;44276;49.534;6.378;2023-09-07T00:12:35;13.50;99.90
53776;DHT22;44276;49.534;6.378;2023-09-07T00:15:07;13.50;99.90
53776;DHT22;44276;49.534;6.378;2023-09-07T00:17:37;13.30;99.90
53776;DHT22;44276;49.534;6.378;2023-09-07T00:20:06;13.30;99.90
53776;DHT22;44276;49.534;6.378;2023-09-07T00:22:41;13.20;99.90
53776;DHT22;44276;49.534;6.378;2023-09-07T00:25:09;13.20;99.90
53776;DHT22;44276;49.534;6.378;2023-09-07T00:27:37;13.30;99.90
53776;DHT22;44276;49.534;6.378;2023-09-07T00:30:06;13.50;99.90
53776;DHT22;44276;49.534;6.378;2023-09-07T00:32:36;13.60;99.90
53776;DHT22;44276;49.534;6.378;2023-09-07T00:35:08;13.80;99.90
53776;DHT22;44276;49.534;6.378;2023-09-07T00:37:37;13.90;99.90
53776;DHT22;44276;49.534;6.378;2023-09-07T00:40:07;13.80;99.90
53776;DHT22;44276;49.534;6.378;2023-09-07T00:42:36;13.80;99.90
53776;DHT22;44276;49.534;6.378;2023-09-07T00:45:05;13.70;99.90
53776;DHT22;44276;49.534;6.378;2023-09-07T00:47:35;13.60;99.90
53776;DHT22;44276;49.534;6.378;2023-09-07T00:50:05;13.60;99.90
53776;DHT22;44276;49.534;6.378;2023-09-07T00:52:36;13.70;99.90
53776;DHT22;44276;49.534;6.378;2023-09-07T00:55:07;13.80;99.90
53776;DHT22;44276;49.534;6.378;2023-09-07T00:57:37;13.80;99.90
53776;DHT22;44276;49.534;6.378;2023-09-07T01:00:07;13.80;99.90
53776;DHT22;44276;49.534;6.378;2023-09-07T01:02:36;13.80;99.90
53776;DHT22;44276;49.534;6.378;2023-09-07T01:05:05;13.90;99.90
53776;DHT22;44276;49.534;6.378;2023-09-07T01:07:40;13.90;99.90
53776;DHT22;44276;49.534;6.378;2023-09-07T01:10:13;13.90;99.90
53776;DHT22;44276;49.534;6.378;2023-09-07T01:12:41;13.90;99.90
53776;DHT22;44276;49.534;6.378;2023-09-07T01:15:10;13.80;99.90
53776;DHT22;44276;49.534;6.378;2023-09-07T01:17:38;13.90;99.90
53776;DHT22;44276;49.534;6.378;2023-09-07T01:20:10;13.90;99.90
53776;DHT22;44276;49.534;6.378;2023-09-07T01:22:45;13.90;99.90
53776;DHT22;44276;49.534;6.378;2023-09-07T01:25:14;13.80;99.90
53776;DHT22;44276;49.534;6.378;2023-09-07T01:27:43;13.80;99.90
53776;DHT22;44276;49.534;6.378;2023-09-07T01:30:11;13.80;99.90
53776;DHT22;44276;49.534;6.378;2023-09-07T01:32:40;13.80;99.90
53776;DHT22;44276;49.534;6.378;2023-09-07T01:35:10;13.80;99.90
53776;DHT22;44276;49.534;6.378;2023-09-07T01:37:39;13.70;99.90
53776;DHT22;44276;49.534;6.378;2023-09-07T01:40:09;13.80;99.90
53776;DHT22;44276;49.534;6.378;2023-09-07T01:42:37;13.70;99.90
53776;DHT22;44276;49.534;6.378;2023-09-07T01:45:07;13.60;99.90
53776;DHT22;44276;49.534;6.378;2023-09-07T01:47:35;13.60;99.90
53776;DHT22;44276;49.534;6.378;2023-09-07T01:50:05;13.70;99.90
53776;DHT22;44276;49.534;6.378;2023-09-07T01:52:33;13.60;99.90
53776;DHT22;44276;49.534;6.378;2023-09-07T01:55:02;13.60;99.90
53776;DHT22;44276;49.534;6.378;2023-09-07T01:57:32;13.30;99.90
53776;DHT22;44276;49.534;6.378;2023-09-07T02:00:00;13.30;99.90
53776;DHT22;44276;49.534;6.378;2023-09-07T02:02:31;13.20;99.90
53776;DHT22;44276;49.534;6.378;2023-09-07T02:04:59;13.10;99.90
53776;DHT22;44276;49.534;6.378;2023-09-07T02:07:28;12.90;99.90
53776;DHT22;44276;49.534;6.378;2023-09-07T02:09:56;12.70;99.90
53776;DHT22;44276;49.534;6.378;2023-09-07T02:12:24;12.60;99.90
53776;DHT22;44276;49.534;6.378;2023-09-07T02:14:54;12.50;99.90
53776;DHT22;44276;49.534;6.378;2023-09-07T02:17:22;12.30;99.90
53776;DHT22;44276;49.534;6.378;2023-09-07T02:19:51;12.20;99.90
53776;DHT22;44276;49.534;6.378;2023-09-07T02:22:19;12.20;99.90
53776;DHT22;44276;49.534;6.378;2023-09-07T02:24:47;12.10;99.90
53776;DHT22;44276;49.534;6.378;2023-09-07T02:27:15;12.10;99.90
53776;DHT22;44276;49.534;6.378;2023-09-07T02:29:44;12.10;99.90
53776;DHT22;44276;49.534;6.378;2023-09-07T02:32:13;12.10;99.90
53776;DHT22;44276;49.534;6.378;2023-09-07T02:34:42;12.30;99.90
53776;DHT22;44276;49.534;6.378;2023-09-07T02:37:10;12.20;99.90
53776;DHT22;44276;49.534;6.378;2023-09-07T02:39:38;12.10;99.90
53776;DHT22;44276;49.534;6.378;2023-09-07T02:42:06;12.20;99.90
53776;DHT22;44276;49.534;6.378;2023-09-07T02:44:35;12.30;99.90
53776;DHT22;44276;49.534;6.378;2023-09-07T02:47:04;12.20;99.90
53776;DHT22;44276;49.534;6.378;2023-09-07T02:49:35;12.10;99.90
53776;DHT22;44276;49.534;6.378;2023-09-07T02:52:03;12.20;99.90
53776;DHT22;44276;49.534;6.378;2023-09-07T02:54:32;12.20;99.90
53776;DHT22;44276;49.534;6.378;2023-09-07T02:57:00;12.10;99.90
53776;DHT22;44276;49.534;6.378;2023-09-07T02:59:28;12.20;99.90
53776;DHT22;44276;49.534;6.378;2023-09-07T03:01:56;12.50;99.90
53776;DHT22;44276;49.534;6.378;2023-09-07T03:04:26;12.50;99.90
53776;DHT22;44276;49.534;6.378;2023-09-07T03:06:56;12.30;99.90
53776;DHT22;44276;49.534;6.378;2023-09-07T03:09:24;12.20;99.90
53776;DHT22;44276;49.534;6.378;2023-09-07T03:11:52;12.20;99.90
53776;DHT22;44276;49.534;6.378;2023-09-07T03:14:21;12.20;99.90
53776;DHT22;44276;49.534;6.378;2023-09-07T03:16:49;12.30;99.90
53776;DHT22;44276;49.534;6.378;2023-09-07T03:19:18;12.20;99.90
53776;DHT22;44276;49.534;6.378;2023-09-07T03:21:46;12.10;99.90
53776;DHT22;44276;49.534;6.378;2023-09-07T03:24:15;12.00;99.90
53776;DHT22;44276;49.534;6.378;2023-09-07T03:26:43;12.00;99.90
53776;DHT22;44276;49.534;6.378;2023-09-07T03:29:12;12.10;99.90
53776;DHT22;44276;49.534;6.378;2023-09-07T03:31:40;12.20;99.90
53776;DHT22;44276;49.534;6.378;2023-09-07T03:34:08;12.30;99.90
53776;DHT22;44276;49.534;6.378;2023-09-07T03:36:36;12.40;99.90
53776;DHT22;44276;49.534;6.378;2023-09-07T03:39:04;12.30;99.90
53776;DHT22;44276;49.534;6.378;2023-09-07T03:41:36;12.20;99.90
53776;DHT22;44276;49.534;6.378;2023-09-07T03:44:05;12.10;99.90
53776;DHT22;44276;49.534;6.378;2023-09-07T03:46:33;12.30;99.90
53776;DHT22;44276;49.534;6.378;2023-09-07T03:49:02;12.40;99.90
53776;DHT22;44276;49.534;6.378;2023-09-07T03:51:31;12.40;99.90
53776;DHT22;44276;49.534;6.378;2023-09-07T03:53:59;12.40;99.90
53776;DHT22;44276;49.534;6.378;2023-09-07T03:56:27;12.40;99.90
53776;DHT22;44276;49.534;6.378;2023-09-07T03:58:57;12.30;99.90
53776;DHT22;44276;49.534;6.378;2023-09-07T04:01:25;12.20;99.90
53776;DHT22;44276;49.534;6.378;2023-09-07T04:03:53;11.90;99.90
53776;DHT22;44276;49.534;6.378;2023-09-07T04:06:22;11.70;99.90
53776;DHT22;44276;49.534;6.378;2023-09-07T04:08:50;11.50;99.90
53776;DHT22;44276;49.534;6.378;2023-09-07T04:11:19;11.60;99.90
53776;DHT22;44276;49.534;6.378;2023-09-07T04:13:47;11.50;99.90
53776;DHT22;44276;49.534;6.378;2023-09-07T04:16:16;11.40;99.90
53776;DHT22;44276;49.534;6.378;2023-09-07T04:18:45;11.40;99.90
53776;DHT22;44276;49.534;6.378;2023-09-07T04:21:13;11.70;99.90
53776;DHT22;44276;49.534;6.378;2023-09-07T04:23:41;11.60;99.90
53776;DHT22;44276;49.534;6.378;2023-09-07T04:26:10;11.50;99.90
53776;DHT22;44276;49.534;6.378;2023-09-07T04:28:39;11.40;99.90
53776;DHT22;44276;49.534;6.378;2023-09-07T04:31:07;11.40;99.90
53776;DHT22;44276;49.534;6.378;2023-09-07T04:33:37;11.40;99.90
53776;DHT22;44276;49.534;6.378;2023-09-07T04:36:09;11.50;99.90
53776;DHT22;44276;49.534;6.378;2023-09-07T04:38:37;11.70;99.90
53776;DHT22;44276;49.534;6.378;2023-09-07T04:41:07;11.70;99.90
53776;DHT22;44276;49.534;6.378;2023-09-07T04:43:36;11.60;99.90
53776;DHT22;44276;49.534;6.378;2023-09-07T04:46:07;11.50;99.90
53776;DHT22;44276;49.534;6.378;2023-09-07T04:48:37;11.50;99.90
53776;DHT22;44276;49.534;6.378;2023-09-07T04:51:06;11.50;99.90
53776;DHT22;44276;49.534;6.378;2023-09-07T04:53:36;11.40;99.90
53776;DHT22;44276;49.534;6.378;2023-09-07T04:56:07;11.30;99.90
53776;DHT22;44276;49.534;6.378;2023-09-07T04:58:36;11.30;99.90
53776;DHT22;44276;49.534;6.378;2023-09-07T05:01:05;11.20;99.90
53776;DHT22;44276;49.534;6.378;2023-09-07T05:03:37;11.20;99.90
53776;DHT22;44276;49.534;6.378;2023-09-07T05:06:07;11.20;99.90
53776;DHT22;44276;49.534;6.378;2023-09-07T05:08:35;11.20;99.90
53776;DHT22;44276;49.534;6.378;2023-09-07T05:11:04;11.20;99.90
53776;DHT22;44276;49.534;6.378;2023-09-07T05:13:32;11.30;99.90
53776;DHT22;44276;49.534;6.378;2023-09-07T05:16:01;11.30;99.90
53776;DHT22;44276;49.534;6.378;2023-09-07T05:18:29;11.40;99.90
53776;DHT22;44276;49.534;6.378;2023-09-07T05:20:59;11.50;99.90
53776;DHT22;44276;49.534;6.378;2023-09-07T05:23:27;11.80;99.90
53776;DHT22;44276;49.534;6.378;2023-09-07T05:25:55;12.00;99.90
53776;DHT22;44276;49.534;6.378;2023-09-07T05:28:23;11.90;99.90
53776;DHT22;44276;49.534;6.378;2023-09-07T05:30:51;11.90;99.90
53776;DHT22;44276;49.534;6.378;2023-09-07T05:33:20;11.90;99.90
53776;DHT22;44276;49.534;6.378;2023-09-07T05:35:48;11.90;99.90
53776;DHT22;44276;49.534;6.378;2023-09-07T05:38:18;12.00;99.90
53776;DHT22;44276;49.534;6.378;2023-09-07T05:40:46;12.10;99.90
53776;DHT22;44276;49.534;6.378;2023-09-07T05:43:17;12.20;99.90
53776;DHT22;44276;49.534;6.378;2023-09-07T05:45:45;12.30;99.90
53776;DHT22;44276;49.534;6.378;2023-09-07T05:48:14;12.40;99.90
53776;DHT22;44276;49.534;6.378;2023-09-07T05:50:44;13.00;99.90
53776;DHT22;44276;49.534;6.378;2023-09-07T05:53:13;13.80;99.90
53776;DHT22;44276;49.534;6.378;2023-09-07T05:55:43;14.40;99.90
53776;DHT22;44276;49.534;6.378;2023-09-07T05:58:12;14.80;99.90
53776;DHT22;44276;49.534;6.378;2023-09-07T06:00:41;15.50;99.90
53776;DHT22;44276;49.534;6.378;2023-09-07T06:03:10;16.10;99.90
53776;DHT22;44276;49.534;6.378;2023-09-07T06:05:39;16.90;99.90
53776;DHT22;44276;49.534;6.378;2023-09-07T06:08:07;17.60;99.90
53776;DHT22;44276;49.534;6.378;2023-09-07T06:10:35;18.40;99.90
53776;DHT22;44276;49.534;6.378;2023-09-07T06:13:06;19.20;99.90
53776;DHT22;44276;49.534;6.378;2023-09-07T06:15:34;19.80;99.90
53776;DHT22;44276;49.534;6.378;2023-09-07T06:18:03;20.30;99.90
53776;DHT22;44276;49.534;6.378;2023-09-07T06:20:31;20.70;87.00
53776;DHT22;44276;49.534;6.378;2023-09-07T06:23:01;20.80;76.90
53776;DHT22;44276;49.534;6.378;2023-09-07T06:25:29;21.10;86.30
53776;DHT22;44276;49.534;6.378;2023-09-07T06:28:00;21.40;73.60
53776;DHT22;44276;49.534;6.378;2023-09-07T06:30:30;21.70;65.40
53776;DHT22;44276;49.534;6.378;2023-09-07T06:32:58;21.90;57.90
53776;DHT22;44276;49.534;6.378;2023-09-07T06:35:27;22.20;58.80
53776;DHT22;44276;49.534;6.378;2023-09-07T06:37:56;22.50;60.30
53776;DHT22;44276;49.534;6.378;2023-09-07T06:40:24;22.80;47.00
53776;DHT22;44276;49.534;6.378;2023-09-07T06:42:53;23.00;49.90
53776;DHT22;44276;49.534;6.378;2023-09-07T06:45:21;23.20;44.40
53776;DHT22;44276;49.534;6.378;2023-09-07T06:47:51;23.10;45.40
53776;DHT22;44276;49.534;6.378;2023-09-07T06:50:20;23.10;42.50
53776;DHT22;44276;49.534;6.378;2023-09-07T06:52:48;23.40;43.30
53776;DHT22;44276;49.534;6.378;2023-09-07T06:55:18;23.40;40.60
53776;DHT22;44276;49.534;6.378;2023-09-07T06:57:46;23.60;40.40
53776;DHT22;44276;49.534;6.378;2023-09-07T07:00:16;23.60;40.20
53776;DHT22;44276;49.534;6.378;2023-09-07T07:02:44;23.80;38.30
53776;DHT22;44276;49.534;6.378;2023-09-07T07:05:14;23.60;38.40
53776;DHT22;44276;49.534;6.378;2023-09-07T07:07:42;24.10;37.50
53776;DHT22;44276;49.534;6.378;2023-09-07T07:10:10;24.40;36.10
53776;DHT22;44276;49.534;6.378;2023-09-07T07:12:39;25.30;33.70
53776;DHT22;44276;49.534;6.378;2023-09-07T07:15:08;25.90;31.60
53776;DHT22;44276;49.534;6.378;2023-09-07T07:17:38;26.40;30.00
53776;DHT22;44276;49.534;6.378;2023-09-07T07:20:10;26.60;29.50
53776;DHT22;44276;49.534;6.378;2023-09-07T07:22:40;26.90;29.50
53776;DHT22;44276;49.534;6.378;2023-09-07T07:25:08;27.40;28.30
53776;DHT22;44276;49.534;6.378;2023-09-07T07:27:37;27.80;27.00
53776;DHT22;44276;49.534;6.378;2023-09-07T07:30:06;28.30;26.70
53776;DHT22;44276;49.534;6.378;2023-09-07T07:32:34;28.90;25.20
53776;DHT22;44276;49.534;6.378;2023-09-07T07:35:03;29.30;23.70
53776;DHT22;44276;49.534;6.378;2023-09-07T07:37:33;29.40;24.40
53776;DHT22;44276;49.534;6.378;2023-09-07T07:40:03;29.30;24.30
53776;DHT22;44276;49.534;6.378;2023-09-07T07:42:32;29.30;24.90
53776;DHT22;44276;49.534;6.378;2023-09-07T07:45:00;30.30;23.50
53776;DHT22;44276;49.534;6.378;2023-09-07T07:47:29;31.00;22.00
53776;DHT22;44276;49.534;6.378;2023-09-07T07:49:57;31.10;20.90
53776;DHT22;44276;49.534;6.378;2023-09-07T07:52:25;31.30;21.00
53776;DHT22;44276;49.534;6.378;2023-09-07T07:54:53;31.40;21.40
53776;DHT22;44276;49.534;6.378;2023-09-07T07:57:22;31.60;20.50
53776;DHT22;44276;49.534;6.378;2023-09-07T07:59:51;32.00;19.90
53776;DHT22;44276;49.534;6.378;2023-09-07T08:02:19;32.10;19.70
53776;DHT22;44276;49.534;6.378;2023-09-07T08:04:48;32.80;20.40
53776;DHT22;44276;49.534;6.378;2023-09-07T08:07:16;33.60;18.40
53776;DHT22;44276;49.534;6.378;2023-09-07T08:09:45;33.30;17.90
53776;DHT22;44276;49.534;6.378;2023-09-07T08:12:13;33.50;17.70
53776;DHT22;44276;49.534;6.378;2023-09-07T08:14:43;33.90;17.40
53776;DHT22;44276;49.534;6.378;2023-09-07T08:17:12;33.50;17.80
53776;DHT22;44276;49.534;6.378;2023-09-07T08:19:40;33.90;16.80
53776;DHT22;44276;49.534;6.378;2023-09-07T08:22:10;34.10;16.40
53776;DHT22;44276;49.534;6.378;2023-09-07T08:24:38;34.40;16.20
53776;DHT22;44276;49.534;6.378;2023-09-07T08:27:07;35.40;15.60
53776;DHT22;44276;49.534;6.378;2023-09-07T08:29:38;36.20;14.60
53776;DHT22;44276;49.534;6.378;2023-09-07T08:32:07;36.10;13.80
53776;DHT22;44276;49.534;6.378;2023-09-07T08:34:38;36.40;13.70
53776;DHT22;44276;49.534;6.378;2023-09-07T08:37:07;36.40;13.80
53776;DHT22;44276;49.534;6.378;2023-09-07T08:39:35;37.10;12.70
53776;DHT22;44276;49.534;6.378;2023-09-07T08:42:06;36.90;12.20
53776;DHT22;44276;49.534;6.378;2023-09-07T08:44:37;36.60;13.40
53776;DHT22;44276;49.534;6.378;2023-09-07T08:47:09;36.90;12.60
53776;DHT22;44276;49.534;6.378;2023-09-07T08:49:38;36.30;13.10
53776;DHT22;44276;49.534;6.378;2023-09-07T08:52:08;36.70;12.80
53776;DHT22;44276;49.534;6.378;2023-09-07T08:54:37;37.00;12.20
53776;DHT22;44276;49.534;6.378;2023-09-07T08:57:06;36.90;12.40
53776;DHT22;44276;49.534;6.378;2023-09-07T08:59:35;36.60;12.40
53776;DHT22;44276;49.534;6.378;2023-09-07T09:02:09;36.40;13.20
53776;DHT22;44276;49.534;6.378;2023-09-07T09:04:38;36.70;13.20
53776;DHT22;44276;49.534;6.378;2023-09-07T09:07:07;37.30;12.40
53776;DHT22;44276;49.534;6.378;2023-09-07T09:09:35;37.20;12.40
53776;DHT22;44276;49.534;6.378;2023-09-07T09:12:08;37.20;12.40
53776;DHT22;44276;49.534;6.378;2023-09-07T09:14:37;37.20;12.10
53776;DHT22;44276;49.534;6.378;2023-09-07T09:17:05;36.80;13.30
53776;DHT22;44276;49.534;6.378;2023-09-07T09:19:36;37.30;12.40
53776;DHT22;44276;49.534;6.378;2023-09-07T09:22:04;36.60;12.90
53776;DHT22;44276;49.534;6.378;2023-09-07T09:24:33;35.90;13.50
53776;DHT22;44276;49.534;6.378;2023-09-07T09:27:01;35.80;13.10
53776;DHT22;44276;49.534;6.378;2023-09-07T09:29:32;36.20;12.70
53776;DHT22;44276;49.534;6.378;2023-09-07T09:32:03;36.30;11.90
53776;DHT22;44276;49.534;6.378;2023-09-07T09:34:35;36.80;12.10
53776;DHT22;44276;49.534;6.378;2023-09-07T09:37:13;37.00;12.00
53776;DHT22;44276;49.534;6.378;2023-09-07T09:39:42;37.90;10.70
53776;DHT22;44276;49.534;6.378;2023-09-07T09:42:12;39.00;9.50
53776;DHT22;44276;49.534;6.378;2023-09-07T09:44:41;39.80;8.80
53776;DHT22;44276;49.534;6.378;2023-09-07T09:47:13;40.00;7.90
53776;DHT22;44276;49.534;6.378;2023-09-07T09:49:44;40.20;8.50
53776;DHT22;44276;49.534;6.378;2023-09-07T09:52:14;39.90;8.40
53776;DHT22;44276;49.534;6.378;2023-09-07T09:54:43;39.70;9.00
53776;DHT22;44276;49.534;6.378;2023-09-07T09:57:13;40.20;8.60
53776;DHT22;44276;49.534;6.378;2023-09-07T09:59:42;39.90;8.70
53776;DHT22;44276;49.534;6.378;2023-09-07T10:02:11;38.90;9.60
53776;DHT22;44276;49.534;6.378;2023-09-07T10:04:39;38.90;9.80
53776;DHT22;44276;49.534;6.378;2023-09-07T10:07:10;39.30;9.10
53776;DHT22;44276;49.534;6.378;2023-09-07T10:09:38;39.30;8.80
53776;DHT22;44276;49.534;6.378;2023-09-07T10:12:11;39.70;8.40
53776;DHT22;44276;49.534;6.378;2023-09-07T10:14:43;39.30;8.40
53776;DHT22;44276;49.534;6.378;2023-09-07T10:17:22;38.60;9.60
53776;DHT22;44276;49.534;6.378;2023-09-07T10:20:01;38.10;9.80
53776;DHT22;44276;49.534;6.378;2023-09-07T10:22:33;37.70;10.30
53776;DHT22;44276;49.534;6.378;2023-09-07T10:25:01;37.70;10.70
53776;DHT22;44276;49.534;6.378;2023-09-07T10:27:36;38.30;10.30
53776;DHT22;44276;49.534;6.378;2023-09-07T10:30:10;38.20;9.90
53776;DHT22;44276;49.534;6.378;2023-09-07T10:32:40;38.30;9.20
53776;DHT22;44276;49.534;6.378;2023-09-07T10:35:15;38.20;9.40
53776;DHT22;44276;49.534;6.378;2023-09-07T10:37:47;36.90;11.20
53776;DHT22;44276;49.534;6.378;2023-09-07T10:40:19;36.90;10.70
53776;DHT22;44276;49.534;6.378;2023-09-07T10:42:48;37.60;9.70
53776;DHT22;44276;49.534;6.378;2023-09-07T10:45:17;38.70;9.20
53776;DHT22;44276;49.534;6.378;2023-09-07T10:47:46;38.60;8.70
53776;DHT22;44276;49.534;6.378;2023-09-07T10:50:14;38.50;9.20
53776;DHT22;44276;49.534;6.378;2023-09-07T10:52:43;38.20;9.10
53776;DHT22;44276;49.534;6.378;2023-09-07T10:55:13;37.50;10.30
53776;DHT22;44276;49.534;6.378;2023-09-07T10:57:42;37.70;10.40
53776;DHT22;44276;49.534;6.378;2023-09-07T11:00:12;38.00;9.80
53776;DHT22;44276;49.534;6.378;2023-09-07T11:02:42;37.80;9.70
53776;DHT22;44276;49.534;6.378;2023-09-07T11:05:11;37.60;11.30
53776;DHT22;44276;49.534;6.378;2023-09-07T11:07:39;37.00;11.00
53776;DHT22;44276;49.534;6.378;2023-09-07T11:10:10;37.40;10.20
53776;DHT22;44276;49.534;6.378;2023-09-07T11:12:40;37.10;10.30
53776;DHT22;44276;49.534;6.378;2023-09-07T11:15:09;37.80;9.80
53776;DHT22;44276;49.534;6.378;2023-09-07T11:17:38;38.20;10.20
53776;DHT22;44276;49.534;6.378;2023-09-07T11:20:08;38.30;9.80
53776;DHT22;44276;49.534;6.378;2023-09-07T11:22:37;38.50;9.80
53776;DHT22;44276;49.534;6.378;2023-09-07T11:25:26;37.90;10.50
53776;DHT22;44276;49.534;6.378;2023-09-07T11:27:57;36.90;11.40
53776;DHT22;44276;49.534;6.378;2023-09-07T11:30:26;36.50;12.70
53776;DHT22;44276;49.534;6.378;2023-09-07T11:33:00;36.90;10.70
53776;DHT22;44276;49.534;6.378;2023-09-07T11:35:30;37.10;9.90
53776;DHT22;44276;49.534;6.378;2023-09-07T11:38:00;36.70;10.50
53776;DHT22;44276;49.534;6.378;2023-09-07T11:40:32;36.10;11.40
53776;DHT22;44276;49.534;6.378;2023-09-07T11:43:01;36.10;11.80
53776;DHT22;44276;49.534;6.378;2023-09-07T11:45:29;37.00;9.60
53776;DHT22;44276;49.534;6.378;2023-09-07T11:47:59;36.50;10.10
53776;DHT22;44276;49.534;6.378;2023-09-07T11:50:27;36.10;11.00
53776;DHT22;44276;49.534;6.378;2023-09-07T11:52:56;35.60;11.70
53776;DHT22;44276;49.534;6.378;2023-09-07T11:55:25;36.70;11.30
53776;DHT22;44276;49.534;6.378;2023-09-07T11:57:53;36.10;11.00
53776;DHT22;44276;49.534;6.378;2023-09-07T12:00:22;36.20;11.20
53776;DHT22;44276;49.534;6.378;2023-09-07T12:02:51;37.00;10.10
53776;DHT22;44276;49.534;6.378;2023-09-07T12:05:20;37.00;10.20
53776;DHT22;44276;49.534;6.378;2023-09-07T12:07:48;37.30;10.40
53776;DHT22;44276;49.534;6.378;2023-09-07T12:10:16;37.80;9.80
53776;DHT22;44276;49.534;6.378;2023-09-07T12:12:45;38.40;9.20
53776;DHT22;44276;49.534;6.378;2023-09-07T12:15:13;38.50;8.80
53776;DHT22;44276;49.534;6.378;2023-09-07T12:17:42;38.80;8.80
53776;DHT22;44276;49.534;6.378;2023-09-07T12:20:11;38.20;9.20
53776;DHT22;44276;49.534;6.378;2023-09-07T12:22:41;37.30;10.10
53776;DHT22;44276;49.534;6.378;2023-09-07T12:25:09;37.10;10.40
53776;DHT22;44276;49.534;6.378;2023-09-07T12:27:41;37.10;10.80
53776;DHT22;44276;49.534;6.378;2023-09-07T12:30:21;38.00;10.10
53776;DHT22;44276;49.534;6.378;2023-09-07T12:32:52;38.20;9.10
53776;DHT22;44276;49.534;6.378;2023-09-07T12:35:20;38.20;9.50
53776;DHT22;44276;49.534;6.378;2023-09-07T12:37:49;37.90;10.00
53776;DHT22;44276;49.534;6.378;2023-09-07T12:40:17;37.90;10.10
53776;DHT22;44276;49.534;6.378;2023-09-07T12:42:46;38.00;9.10
53776;DHT22;44276;49.534;6.378;2023-09-07T12:45:14;38.10;9.90
53776;DHT22;44276;49.534;6.378;2023-09-07T12:47:42;37.00;10.00
53776;DHT22;44276;49.534;6.378;2023-09-07T12:50:12;37.30;9.80
53776;DHT22;44276;49.534;6.378;2023-09-07T12:52:40;37.50;10.20
53776;DHT22;44276;49.534;6.378;2023-09-07T12:55:09;37.50;9.60
53776;DHT22;44276;49.534;6.378;2023-09-07T12:57:37;36.20;11.50
53776;DHT22;44276;49.534;6.378;2023-09-07T13:00:07;36.30;11.80
53776;DHT22;44276;49.534;6.378;2023-09-07T13:02:37;36.60;10.60
53776;DHT22;44276;49.534;6.378;2023-09-07T13:05:06;36.90;10.70
53776;DHT22;44276;49.534;6.378;2023-09-07T13:07:36;36.90;10.70
53776;DHT22;44276;49.534;6.378;2023-09-07T13:10:05;37.00;11.00
53776;DHT22;44276;49.534;6.378;2023-09-07T13:12:34;36.90;11.20
53776;DHT22;44276;49.534;6.378;2023-09-07T13:15:03;37.00;10.20
53776;DHT22;44276;49.534;6.378;2023-09-07T13:17:31;36.90;10.60
53776;DHT22;44276;49.534;6.378;2023-09-07T13:20:01;36.40;11.20
53776;DHT22;44276;49.534;6.378;2023-09-07T13:22:29;36.60;11.70
53776;DHT22;44276;49.534;6.378;2023-09-07T13:24:58;36.60;10.90
53776;DHT22;44276;49.534;6.378;2023-09-07T13:27:27;36.20;11.20
53776;DHT22;44276;49.534;6.378;2023-09-07T13:29:55;35.70;12.30
53776;DHT22;44276;49.534;6.378;2023-09-07T13:32:24;35.50;12.50
53776;DHT22;44276;49.534;6.378;2023-09-07T13:34:52;35.60;11.80
53776;DHT22;44276;49.534;6.378;2023-09-07T13:37:20;36.00;11.70
53776;DHT22;44276;49.534;6.378;2023-09-07T13:39:48;36.40;11.90
53776;DHT22;44276;49.534;6.378;2023-09-07T13:42:17;37.20;11.60
53776;DHT22;44276;49.534;6.378;2023-09-07T13:44:46;37.70;11.00
53776;DHT22;44276;49.534;6.378;2023-09-07T13:47:14;38.00;10.40
53776;DHT22;44276;49.534;6.378;2023-09-07T13:49:42;37.50;10.10
53776;DHT22;44276;49.534;6.378;2023-09-07T13:52:10;36.90;11.70
53776;DHT22;44276;49.534;6.378;2023-09-07T13:54:40;37.10;11.40
53776;DHT22;44276;49.534;6.378;2023-09-07T13:57:08;36.00;12.10
53776;DHT22;44276;49.534;6.378;2023-09-07T13:59:38;35.20;13.50
53776;DHT22;44276;49.534;6.378;2023-09-07T14:02:06;35.10;13.00
53776;DHT22;44276;49.534;6.378;2023-09-07T14:04:34;34.90;13.70
53776;DHT22;44276;49.534;6.378;2023-09-07T14:07:02;35.10;13.30
53776;DHT22;44276;49.534;6.378;2023-09-07T14:09:30;35.50;13.80
53776;DHT22;44276;49.534;6.378;2023-09-07T14:12:00;35.40;13.30
53776;DHT22;44276;49.534;6.378;2023-09-07T14:14:28;36.00;12.70
53776;DHT22;44276;49.534;6.378;2023-09-07T14:16:58;35.40;13.80
53776;DHT22;44276;49.534;6.378;2023-09-07T14:19:27;35.00;13.60
53776;DHT22;44276;49.534;6.378;2023-09-07T14:21:57;35.00;13.80
53776;DHT22;44276;49.534;6.378;2023-09-07T14:24:25;35.30;13.80
53776;DHT22;44276;49.534;6.378;2023-09-07T14:26:54;35.40;14.40
53776;DHT22;44276;49.534;6.378;2023-09-07T14:29:22;35.60;13.60
53776;DHT22;44276;49.534;6.378;2023-09-07T14:31:50;35.30;14.10
53776;DHT22;44276;49.534;6.378;2023-09-07T14:34:20;35.30;13.60
53776;DHT22;44276;49.534;6.378;2023-09-07T14:36:48;34.80;15.10
53776;DHT22;44276;49.534;6.378;2023-09-07T14:39:16;34.70;15.40
53776;DHT22;44276;49.534;6.378;2023-09-07T14:41:50;34.70;14.50
53776;DHT22;44276;49.534;6.378;2023-09-07T14:44:19;34.60;15.20
53776;DHT22;44276;49.534;6.378;2023-09-07T14:46:48;34.40;15.20
53776;DHT22;44276;49.534;6.378;2023-09-07T14:49:17;34.30;16.10
53776;DHT22;44276;49.534;6.378;2023-09-07T14:51:47;34.40;15.00
53776;DHT22;44276;49.534;6.378;2023-09-07T14:54:15;34.10;15.40
53776;DHT22;44276;49.534;6.378;2023-09-07T14:56:44;33.70;15.80
53776;DHT22;44276;49.534;6.378;2023-09-07T14:59:12;33.60;16.00
53776;DHT22;44276;49.534;6.378;2023-09-07T15:01:40;33.50;16.00
53776;DHT22;44276;49.534;6.378;2023-09-07T15:04:21;33.60;16.40
53776;DHT22;44276;49.534;6.378;2023-09-07T15:06:50;33.60;16.10
53776;DHT22;44276;49.534;6.378;2023-09-07T15:09:19;33.60;16.00
53776;DHT22;44276;49.534;6.378;2023-09-07T15:11:47;33.30;16.20
53776;DHT22;44276;49.534;6.378;2023-09-07T15:14:15;33.00;16.30
53776;DHT22;44276;49.534;6.378;2023-09-07T15:16:43;32.70;16.40
53776;DHT22;44276;49.534;6.378;2023-09-07T15:19:11;32.60;17.00
53776;DHT22;44276;49.534;6.378;2023-09-07T15:21:39;32.50;17.40
53776;DHT22;44276;49.534;6.378;2023-09-07T15:24:09;32.70;17.10
53776;DHT22;44276;49.534;6.378;2023-09-07T15:26:41;32.90;17.20
53776;DHT22;44276;49.534;6.378;2023-09-07T15:29:11;32.80;16.70
53776;DHT22;44276;49.534;6.378;2023-09-07T15:31:39;32.80;17.10
53776;DHT22;44276;49.534;6.378;2023-09-07T15:34:08;32.50;17.60
53776;DHT22;44276;49.534;6.378;2023-09-07T15:36:37;32.50;18.30
53776;DHT22;44276;49.534;6.378;2023-09-07T15:39:05;32.70;17.40
53776;DHT22;44276;49.534;6.378;2023-09-07T15:41:34;32.80;17.60
53776;DHT22;44276;49.534;6.378;2023-09-07T15:44:03;32.60;17.60